Terminal Aerodrome Forecast
Issued by NWS

Home | Current Version | Previous Version | Text Only | Print | Product List | Glossary On
Versions: 1 2 3 4 5 6 7 8 9 10 11 12 13
640
FTUS46 KLOX 262324
TAFPMD
TAF
KPMD 262324Z 2700/2724 27018G25KT P6SM SCT250
     FM270200 27015KT P6SM SKC
     FM270400 23012KT P6SM SKC
     FM272200 25018G25KT P6SM SKC=

USA.gov is the U.S. government's official web portal to all federal, state and local government web resources and services.